createdAt,value
2018-09-29T00:00:56.838Z,8.28
2018-09-29T00:03:27.171Z,8.09
2018-09-29T00:05:57.862Z,8.08
2018-09-29T00:08:28.196Z,7.68
2018-09-29T00:10:58.441Z,7.27
2018-09-29T00:13:28.697Z,6.75
2018-09-29T00:15:59.059Z,6.44
2018-09-29T00:18:29.583Z,6.70
2018-09-29T00:20:59.907Z,6.84
2018-09-29T00:23:30.199Z,6.77
2018-09-29T00:26:00.467Z,6.69
2018-09-29T00:28:30.712Z,6.80
2018-09-29T00:31:01.104Z,6.72
2018-09-29T00:33:31.351Z,5.84
2018-09-29T00:36:01.598Z,5.29
2018-09-29T00:38:31.889Z,5.28
2018-09-29T00:41:02.149Z,5.41
2018-09-29T00:43:32.929Z,5.23
2018-09-29T00:46:03.756Z,5.22
2018-09-29T00:48:34.208Z,5.19
2018-09-29T00:51:04.930Z,5.20
2018-09-29T00:53:35.351Z,5.48
2018-09-29T00:56:05.595Z,5.71
2018-09-29T00:58:35.840Z,5.75
2018-09-29T01:01:06.640Z,6.09
2018-09-29T01:03:36.902Z,6.17
2018-09-29T01:06:07.187Z,5.91
2018-09-29T01:08:37.663Z,5.77
2018-09-29T01:11:07.977Z,5.59
2018-09-29T01:13:38.245Z,5.50
2018-09-29T01:16:08.671Z,5.64
2018-09-29T01:18:38.941Z,5.92
2018-09-29T01:21:10.823Z,6.02
2018-09-29T01:23:41.073Z,5.79
2018-09-29T01:26:11.424Z,6.03
2018-09-29T01:28:41.771Z,6.23
2018-09-29T01:31:12.046Z,6.38
2018-09-29T01:33:42.288Z,6.43
2018-09-29T01:36:12.796Z,6.25
2018-09-29T01:38:43.049Z,6.16
2018-09-29T01:41:13.297Z,5.54
2018-09-29T01:43:43.628Z,5.16
2018-09-29T01:46:13.872Z,5.28
2018-09-29T01:48:44.121Z,5.49
2018-09-29T01:51:14.511Z,5.57
2018-09-29T01:53:44.756Z,5.87
2018-09-29T01:56:15.076Z,5.84
2018-09-29T01:58:45.355Z,6.08
2018-09-29T02:01:15.806Z,6.10
2018-09-29T02:03:46.151Z,5.76
2018-09-29T02:06:16.404Z,5.62
2018-09-29T02:08:46.673Z,5.81
2018-09-29T02:11:16.969Z,5.97
2018-09-29T02:13:47.227Z,6.10
2018-09-29T02:16:17.509Z,5.83
2018-09-29T02:18:47.810Z,5.59
2018-09-29T02:21:18.082Z,5.36
2018-09-29T02:23:48.436Z,4.87
2018-09-29T02:26:19.272Z,4.99
2018-09-29T02:28:49.600Z,5.18
2018-09-29T02:31:20.029Z,5.29
2018-09-29T02:33:50.305Z,5.48
2018-09-29T02:36:20.595Z,5.34
2018-09-29T02:38:50.842Z,4.82
2018-09-29T02:41:21.075Z,4.69
2018-09-29T02:43:51.424Z,4.29
2018-09-29T02:46:21.677Z,3.85
2018-09-29T02:48:51.929Z,3.81
2018-09-29T02:51:24.960Z,4.27
2018-09-29T02:53:55.229Z,4.80
2018-09-29T02:56:25.519Z,5.09
2018-09-29T02:58:55.759Z,5.08
2018-09-29T03:01:26.073Z,5.33
2018-09-29T03:03:56.462Z,5.27
2018-09-29T03:06:26.944Z,5.40
2018-09-29T03:08:57.209Z,5.38
2018-09-29T03:11:27.481Z,5.09
2018-09-29T03:13:57.743Z,5.10
2018-09-29T03:16:27.981Z,5.23
2018-09-29T03:18:57.416Z,5.35
2018-09-29T03:21:26.572Z,5.60
2018-09-29T03:23:55.756Z,5.61
2018-09-29T03:26:24.996Z,5.66
2018-09-29T03:28:54.143Z,5.68
2018-09-29T03:31:23.342Z,5.72
2018-09-29T03:33:52.754Z,5.61
2018-09-29T03:36:21.920Z,5.21
2018-09-29T03:38:51.093Z,5.04
2018-09-29T03:41:20.387Z,4.68
2018-09-29T03:43:49.561Z,4.17
2018-09-29T03:46:19.931Z,3.97
2018-09-29T03:48:53.035Z,3.89
2018-09-29T03:51:23.288Z,4.03
2018-09-29T03:53:53.647Z,4.20
2018-09-29T03:56:24.008Z,4.58
2018-09-29T03:58:55.102Z,4.78
2018-09-29T04:01:25.736Z,5.01
2018-09-29T04:03:55.992Z,5.22
2018-09-29T04:06:26.284Z,4.96
2018-09-29T04:08:56.556Z,4.83
2018-09-29T04:11:26.833Z,4.63
2018-09-29T04:13:57.218Z,4.70
2018-09-29T04:16:27.697Z,4.31
2018-09-29T04:18:57.958Z,4.31
2018-09-29T04:21:32.343Z,4.39
2018-09-29T04:24:02.603Z,4.70
2018-09-29T04:26:32.877Z,4.81
2018-09-29T04:29:03.261Z,4.50
2018-09-29T04:31:33.502Z,4.54
2018-09-29T04:34:03.759Z,4.53
2018-09-29T04:36:34.029Z,4.53
2018-09-29T04:39:05.501Z,4.61
2018-09-29T04:41:35.871Z,4.66
2018-09-29T04:44:06.370Z,4.84
2018-09-29T04:46:37.073Z,4.95
2018-09-29T04:49:07.571Z,5.03
2018-09-29T04:51:38.086Z,5.14
2018-09-29T04:54:08.471Z,5.28
2018-09-29T04:56:38.840Z,5.04
2018-09-29T04:59:09.169Z,5.00
2018-09-29T05:01:41.991Z,4.95
2018-09-29T05:04:12.381Z,5.08
2018-09-29T05:06:42.787Z,5.25
2018-09-29T05:09:13.085Z,5.23
2018-09-29T05:11:43.367Z,5.26
2018-09-29T05:14:13.632Z,5.94
2018-09-29T05:16:43.950Z,5.76
2018-09-29T05:19:14.232Z,5.60
2018-09-29T05:21:44.608Z,5.55
2018-09-29T05:24:14.894Z,5.35
2018-09-29T05:26:45.216Z,5.37
2018-09-29T05:29:15.473Z,5.38
2018-09-29T05:31:45.964Z,5.51
2018-09-29T05:34:16.279Z,5.86
2018-09-29T05:36:46.550Z,6.17
2018-09-29T05:39:17.332Z,6.32
2018-09-29T05:41:47.639Z,6.16
2018-09-29T05:44:18.267Z,6.49
2018-09-29T05:46:48.529Z,6.47
2018-09-29T05:49:18.822Z,6.45
2018-09-29T05:51:49.139Z,6.91
2018-09-29T05:54:19.521Z,7.34
2018-09-29T05:58:13.888Z,7.44
2018-09-29T06:00:44.178Z,7.88
2018-09-29T06:03:14.475Z,8.19
2018-09-29T06:05:44.856Z,8.27
2018-09-29T06:08:15.429Z,8.43
2018-09-29T06:10:45.696Z,8.63
2018-09-29T06:13:16.560Z,8.64
2018-09-29T06:15:47.040Z,8.78
2018-09-29T06:18:17.336Z,8.98
2018-09-29T06:20:47.663Z,9.09
2018-09-29T06:23:18.140Z,9.11
2018-09-29T06:25:48.414Z,9.24
2018-09-29T06:28:18.719Z,9.46
2018-09-29T06:30:49.225Z,9.42
2018-09-29T06:35:54.767Z,9.49
2018-09-29T06:38:25.046Z,9.68
2018-09-29T06:40:55.475Z,9.81
2018-09-29T06:43:25.921Z,10.06
2018-09-29T06:45:56.293Z,10.60
2018-09-29T06:48:26.553Z,11.19
2018-09-29T06:50:56.890Z,11.10
2018-09-29T06:53:27.305Z,11.24
2018-09-29T06:55:57.725Z,11.09
2018-09-29T06:58:27.990Z,10.33
2018-09-29T07:00:58.348Z,10.37
2018-09-29T07:03:28.613Z,10.46
2018-09-29T07:05:59.668Z,10.57
2018-09-29T07:08:29.943Z,10.61
2018-09-29T07:11:00.272Z,10.81
2018-09-29T07:13:30.585Z,10.94
2018-09-29T07:16:00.924Z,10.86
2018-09-29T07:18:31.822Z,10.98
2018-09-29T07:21:02.144Z,11.15
2018-09-29T07:23:32.495Z,11.40
2018-09-29T07:26:02.769Z,11.57
2018-09-29T07:28:33.120Z,11.92
2018-09-29T07:31:03.408Z,11.96
2018-09-29T07:33:33.706Z,11.93
2018-09-29T07:36:04.137Z,11.86
2018-09-29T07:38:34.474Z,12.14
2018-09-29T07:41:04.790Z,12.28
2018-09-29T07:43:35.159Z,12.43
2018-09-29T07:46:05.549Z,12.50
2018-09-29T07:48:36.811Z,12.52
2018-09-29T07:51:07.275Z,12.49
2018-09-29T07:53:37.991Z,12.36
2018-09-29T07:56:08.435Z,12.64
2018-09-29T07:58:38.911Z,12.90
2018-09-29T08:01:09.221Z,13.14
2018-09-29T08:03:39.557Z,13.08
2018-09-29T08:06:09.896Z,13.46
2018-09-29T08:08:40.196Z,13.62
2018-09-29T08:11:10.872Z,13.82
2018-09-29T08:13:41.265Z,14.06
2018-09-29T08:16:11.629Z,14.15
2018-09-29T08:18:41.963Z,14.40
2018-09-29T08:21:12.304Z,14.71
2018-09-29T08:23:42.624Z,14.92
2018-09-29T08:26:13.421Z,15.02
2018-09-29T08:28:43.692Z,15.18
2018-09-29T08:31:13.992Z,15.35
2018-09-29T08:33:44.306Z,15.61
2018-09-29T08:36:14.564Z,16.09
2018-09-29T08:38:44.873Z,15.66
2018-09-29T08:41:15.287Z,15.88
2018-09-29T08:43:45.573Z,16.54
2018-09-29T08:46:15.880Z,16.53
2018-09-29T08:48:46.214Z,16.72
2018-09-29T08:51:16.493Z,16.87
2018-09-29T08:53:46.835Z,17.01
2018-09-29T08:56:17.466Z,16.92
2018-09-29T08:58:47.760Z,16.86
2018-09-29T09:01:18.708Z,16.69
2018-09-29T09:03:49.967Z,16.62
2018-09-29T09:06:20.851Z,16.48
2018-09-29T09:08:51.721Z,16.33
2018-09-29T09:11:22.718Z,16.05
2018-09-29T09:13:53.544Z,16.07
2018-09-29T09:16:24.454Z,16.04
2018-09-29T09:18:55.309Z,15.93
2018-09-29T09:21:26.218Z,15.58
2018-09-29T09:23:57.163Z,15.46
2018-09-29T09:26:28.754Z,15.40
2018-09-29T09:28:59.848Z,15.16
2018-09-29T09:31:30.740Z,14.64
2018-09-29T09:34:01.604Z,14.56
2018-09-29T09:36:32.493Z,14.34
2018-09-29T09:39:04.672Z,14.50
2018-09-29T09:41:35.628Z,14.62
2018-09-29T09:44:06.766Z,14.79
2018-09-29T09:46:38.506Z,14.78
2018-09-29T09:49:09.333Z,14.78
2018-09-29T09:51:40.222Z,14.76
2018-09-29T09:54:11.074Z,14.88
2018-09-29T09:56:42.496Z,14.83
2018-09-29T09:59:13.774Z,14.80
2018-09-29T10:03:54.301Z,14.90
2018-09-29T10:06:25.241Z,14.68
2018-09-29T10:08:56.354Z,14.40
2018-09-29T10:11:27.249Z,14.47
2018-09-29T10:13:58.442Z,14.57
2018-09-29T10:16:29.297Z,14.60
2018-09-29T10:19:00.143Z,14.58
2018-09-29T10:21:30.976Z,14.63
2018-09-29T10:24:01.943Z,14.67
2018-09-29T10:26:32.769Z,14.76
2018-09-29T10:29:04.130Z,14.83
2018-09-29T10:31:34.963Z,14.88
2018-09-29T10:34:05.883Z,14.98
2018-09-29T10:36:36.703Z,15.06
2018-09-29T10:39:10.196Z,15.18
2018-09-29T10:41:41.607Z,15.22
2018-09-29T10:44:13.258Z,15.32
2018-09-29T10:46:44.313Z,15.45
2018-09-29T10:49:15.186Z,15.47
2018-09-29T10:51:46.508Z,15.66
2018-09-29T10:54:17.428Z,15.78
2018-09-29T10:56:48.416Z,15.94
2018-09-29T10:59:19.389Z,16.03
2018-09-29T11:01:50.264Z,16.16
2018-09-29T11:04:21.136Z,16.26
2018-09-29T11:06:53.593Z,16.53
2018-09-29T11:09:24.498Z,16.90
2018-09-29T11:11:55.334Z,17.19
2018-09-29T11:14:26.360Z,17.32
2018-09-29T11:16:57.415Z,17.45
2018-09-29T11:19:28.287Z,17.60
2018-09-29T11:21:59.124Z,17.75
2018-09-29T11:24:29.997Z,17.91
2018-09-29T11:27:00.902Z,17.95
2018-09-29T11:29:31.824Z,17.87
2018-09-29T11:32:02.692Z,17.52
2018-09-29T11:34:33.577Z,17.02
2018-09-29T11:37:04.433Z,17.04
2018-09-29T11:39:35.377Z,17.31
2018-09-29T11:42:06.222Z,17.47
2018-09-29T11:44:37.145Z,17.46
2018-09-29T11:47:08.016Z,17.43
2018-09-29T11:49:38.894Z,17.43
2018-09-29T11:52:09.737Z,17.11
2018-09-29T11:54:40.596Z,16.85
2018-09-29T11:57:11.528Z,16.92
2018-09-29T11:59:42.444Z,17.01
2018-09-29T12:02:13.465Z,16.97
2018-09-29T12:04:44.656Z,16.89
2018-09-29T12:07:15.596Z,16.67
2018-09-29T12:09:46.591Z,16.76
2018-09-29T12:12:17.441Z,16.93
2018-09-29T12:14:48.405Z,17.08
2018-09-29T12:17:19.267Z,16.97
2018-09-29T12:19:50.123Z,16.97
2018-09-29T12:22:21.026Z,17.02
2018-09-29T12:24:52.049Z,17.08
2018-09-29T12:27:24.920Z,16.96
2018-09-29T12:29:54.518Z,17.05
2018-09-29T12:32:25.566Z,17.08
2018-09-29T12:34:56.473Z,17.14
2018-09-29T12:37:27.402Z,17.19
2018-09-29T12:39:58.436Z,17.06
2018-09-29T12:42:29.279Z,17.11
2018-09-29T12:45:00.254Z,17.08
2018-09-29T12:47:31.332Z,16.82
2018-09-29T12:50:02.207Z,16.99
2018-09-29T12:52:33.038Z,17.08
2018-09-29T12:55:03.943Z,16.90
2018-09-29T12:57:34.875Z,17.03
2018-09-29T13:00:06.366Z,17.33
2018-09-29T13:02:37.216Z,17.55
2018-09-29T13:05:08.245Z,17.81
2018-09-29T13:07:39.305Z,17.90
2018-09-29T13:10:10.213Z,18.21
2018-09-29T13:12:41.147Z,18.41
2018-09-29T13:15:12.080Z,18.73
2018-09-29T13:17:43.148Z,18.78
2018-09-29T13:20:14.061Z,19.01
2018-09-29T13:22:44.939Z,19.16
2018-09-29T13:25:16.034Z,19.33
2018-09-29T13:27:49.104Z,19.48
2018-09-29T13:30:20.067Z,20.22
2018-09-29T13:32:50.893Z,20.49
2018-09-29T13:35:21.767Z,19.56
2018-09-29T13:37:52.608Z,19.54
2018-09-29T13:40:23.467Z,19.71
2018-09-29T13:42:54.318Z,18.88
2018-09-29T13:45:25.245Z,18.48
2018-09-29T13:47:56.087Z,18.43
2018-09-29T13:50:26.949Z,18.67
2018-09-29T13:52:57.805Z,18.82
2018-09-29T13:55:28.667Z,18.91
2018-09-29T13:57:59.624Z,19.00
2018-09-29T14:00:30.569Z,19.06
2018-09-29T14:03:01.435Z,18.87
2018-09-29T14:05:32.300Z,18.80
2018-09-29T14:08:03.114Z,18.68
2018-09-29T14:10:33.969Z,18.65
2018-09-29T14:13:05.451Z,18.55
2018-09-29T14:15:36.659Z,18.46
2018-09-29T14:18:07.516Z,18.54
2018-09-29T14:20:38.377Z,18.51
2018-09-29T14:23:09.221Z,18.57
2018-09-29T14:25:40.213Z,18.53
2018-09-29T14:28:11.049Z,18.44
2018-09-29T14:30:46.185Z,18.20
2018-09-29T14:33:18.942Z,18.40
2018-09-29T14:35:49.821Z,18.27
2018-09-29T14:38:20.667Z,18.03
2018-09-29T14:40:51.643Z,18.17
2018-09-29T14:43:22.488Z,17.94
2018-09-29T14:45:53.410Z,17.96
2018-09-29T14:48:24.301Z,17.94
2018-09-29T14:50:55.265Z,17.93
2018-09-29T14:53:26.128Z,18.06
2018-09-29T14:55:57.057Z,18.09
2018-09-29T14:58:28.099Z,18.12
2018-09-29T15:00:59.163Z,17.76
2018-09-29T15:03:30.037Z,17.71
2018-09-29T15:06:01.011Z,17.83
2018-09-29T15:08:32.072Z,17.79
2018-09-29T15:11:02.947Z,17.84
2018-09-29T15:13:33.773Z,17.90
2018-09-29T15:16:05.113Z,17.73
2018-09-29T15:18:35.945Z,17.64
2018-09-29T15:21:07.025Z,17.51
2018-09-29T15:23:37.885Z,17.44
2018-09-29T15:26:08.902Z,17.48
2018-09-29T15:28:39.876Z,17.25
2018-09-29T15:31:10.894Z,17.18
2018-09-29T15:33:41.738Z,16.98
2018-09-29T15:36:12.640Z,16.80
2018-09-29T15:38:43.472Z,16.96
2018-09-29T15:41:14.355Z,17.02
2018-09-29T15:43:47.710Z,16.95
2018-09-29T15:46:18.728Z,16.85
2018-09-29T15:48:49.615Z,16.77
2018-09-29T15:51:20.676Z,16.64
2018-09-29T15:53:51.588Z,16.64
2018-09-29T15:56:22.459Z,16.54
2018-09-29T15:58:53.389Z,16.47
2018-09-29T16:01:24.336Z,16.35
2018-09-29T16:03:55.187Z,16.26
2018-09-29T16:06:26.073Z,16.11
2018-09-29T16:08:57.057Z,16.01
2018-09-29T16:11:28.129Z,15.84
2018-09-29T16:13:58.976Z,15.46
2018-09-29T16:16:29.898Z,15.22
2018-09-29T16:19:00.761Z,15.28
2018-09-29T16:21:31.689Z,15.22
2018-09-29T16:24:02.701Z,15.23
2018-09-29T16:26:33.580Z,15.51
2018-09-29T16:29:04.438Z,15.55
2018-09-29T16:31:35.377Z,15.20
2018-09-29T16:34:06.225Z,14.94
2018-09-29T16:36:37.531Z,14.88
2018-09-29T16:39:11.832Z,14.88
2018-09-29T16:41:43.119Z,14.70
2018-09-29T16:44:13.976Z,14.65
2018-09-29T16:46:44.922Z,14.70
2018-09-29T16:49:15.780Z,14.59
2018-09-29T16:51:46.686Z,14.62
2018-09-29T16:54:17.570Z,14.29
2018-09-29T16:56:48.944Z,14.38
2018-09-29T16:59:19.904Z,14.13
2018-09-29T17:01:50.864Z,14.12
2018-09-29T17:04:21.742Z,14.31
2018-09-29T17:06:52.864Z,14.41
2018-09-29T17:09:23.760Z,14.57
2018-09-29T17:11:54.653Z,14.40
2018-09-29T17:14:25.504Z,14.03
2018-09-29T17:16:56.452Z,13.99
2018-09-29T17:19:27.958Z,13.87
2018-09-29T17:21:59.067Z,13.79
2018-09-29T17:24:30.164Z,13.74
2018-09-29T17:27:01.073Z,13.49
2018-09-29T17:29:31.938Z,13.28
2018-09-29T17:32:03.200Z,13.42
2018-09-29T17:34:34.095Z,13.40
2018-09-29T17:37:05.217Z,13.28
2018-09-29T17:39:36.105Z,13.21
2018-09-29T17:42:07.048Z,13.13
2018-09-29T17:44:37.935Z,13.03
2018-09-29T17:47:08.899Z,12.89
2018-09-29T17:49:39.767Z,12.75
2018-09-29T17:52:10.700Z,12.87
2018-09-29T17:54:41.575Z,12.89
2018-09-29T17:57:12.772Z,13.06
2018-09-29T17:59:51.944Z,13.09
2018-09-29T18:02:22.863Z,12.98
2018-09-29T18:04:53.731Z,12.95
2018-09-29T18:07:24.861Z,12.85
2018-09-29T18:09:56.067Z,12.62
2018-09-29T18:12:27.081Z,12.56
2018-09-29T18:14:57.990Z,12.43
2018-09-29T18:17:28.929Z,12.39
2018-09-29T18:19:59.888Z,12.39
2018-09-29T18:22:30.885Z,12.49
2018-09-29T18:25:01.844Z,12.61
2018-09-29T18:27:37.831Z,12.64
2018-09-29T18:30:09.213Z,12.64
2018-09-29T18:32:40.093Z,12.57
2018-09-29T18:35:10.979Z,12.72
2018-09-29T18:37:41.875Z,12.90
2018-09-29T18:40:12.805Z,12.95
2018-09-29T18:42:44.103Z,12.96
2018-09-29T18:45:15.060Z,13.05
2018-09-29T18:47:46.382Z,12.86
2018-09-29T18:50:17.631Z,12.99
2018-09-29T18:52:48.898Z,12.98
2018-09-29T18:55:20.216Z,12.77
2018-09-29T18:57:51.316Z,12.63
2018-09-29T19:00:22.315Z,12.57
2018-09-29T19:02:53.245Z,12.69
2018-09-29T19:05:24.122Z,12.57
2018-09-29T19:07:55.118Z,12.42
2018-09-29T19:10:26.073Z,12.55
2018-09-29T19:12:57.083Z,12.41
2018-09-29T19:15:28.178Z,12.47
2018-09-29T19:17:59.096Z,12.28
2018-09-29T19:20:29.986Z,11.97
2018-09-29T19:23:01.029Z,11.79
2018-09-29T19:25:31.917Z,11.69
2018-09-29T19:28:02.944Z,11.55
2018-09-29T19:30:33.869Z,11.84
2018-09-29T19:33:04.794Z,11.98
2018-09-29T19:35:35.786Z,12.01
2018-09-29T19:38:06.738Z,12.00
2018-09-29T19:40:37.818Z,12.09
2018-09-29T19:43:08.774Z,12.12
2018-09-29T19:45:39.729Z,12.07
2018-09-29T19:48:10.795Z,12.11
2018-09-29T19:50:41.712Z,12.08
2018-09-29T19:53:12.655Z,12.11
2018-09-29T19:55:43.541Z,11.99
2018-09-29T19:58:14.507Z,12.03
2018-09-29T20:00:50.498Z,11.82
2018-09-29T20:03:26.328Z,11.69
2018-09-29T20:06:02.245Z,11.81
2018-09-29T20:08:38.141Z,11.82
2018-09-29T20:11:14.354Z,11.76
2018-09-29T20:13:50.093Z,12.08
2018-09-29T20:16:26.032Z,12.17
2018-09-29T20:19:02.079Z,12.09
2018-09-29T20:21:38.089Z,12.12
2018-09-29T20:24:14.204Z,12.24
2018-09-29T20:26:50.095Z,12.21
2018-09-29T20:29:25.939Z,12.05
2018-09-29T20:33:26.144Z,12.06
2018-09-29T20:36:02.198Z,12.05
2018-09-29T20:38:37.864Z,11.79
2018-09-29T20:41:13.730Z,11.69
2018-09-29T20:43:49.559Z,11.89
2018-09-29T20:46:25.525Z,11.86
2018-09-29T20:49:01.362Z,11.98
2018-09-29T20:51:37.494Z,12.11
2018-09-29T20:54:13.435Z,11.90
2018-09-29T20:56:50.385Z,11.74
2018-09-29T20:59:26.163Z,11.72
2018-09-29T21:02:02.168Z,11.75
2018-09-29T21:04:38.016Z,11.60
2018-09-29T21:07:13.896Z,11.75
2018-09-29T21:09:49.721Z,11.38
2018-09-29T21:12:25.601Z,11.33
2018-09-29T21:15:01.424Z,11.31
2018-09-29T21:17:37.339Z,11.40
2018-09-29T21:20:13.225Z,11.28
2018-09-29T21:22:49.096Z,11.20
2018-09-29T21:25:25.162Z,10.93
2018-09-29T21:28:01.173Z,10.98
2018-09-29T21:30:37.044Z,11.06
2018-09-29T21:33:13.368Z,10.88
2018-09-29T21:35:49.236Z,10.71
2018-09-29T21:38:25.143Z,10.58
2018-09-29T21:41:01.008Z,10.55
2018-09-29T21:43:37.008Z,10.88
2018-09-29T21:46:12.824Z,11.01
2018-09-29T21:48:49.032Z,10.80
2018-09-29T21:51:24.912Z,10.73
2018-09-29T21:54:01.083Z,10.22
2018-09-29T21:56:37.530Z,9.96
2018-09-29T21:59:13.559Z,9.87
2018-09-29T22:01:49.413Z,9.97
2018-09-29T22:04:25.520Z,10.19
2018-09-29T22:08:25.502Z,10.24
2018-09-29T22:11:01.407Z,10.52
2018-09-29T22:13:37.200Z,10.61
2018-09-29T22:16:13.057Z,10.80
2018-09-29T22:18:49.141Z,10.91
2018-09-29T22:21:29.299Z,10.78
2018-09-29T22:24:05.248Z,11.12
2018-09-29T22:26:44.005Z,11.17
2018-09-29T22:29:19.811Z,11.25
2018-09-29T22:31:55.739Z,11.22
2018-09-29T22:34:31.856Z,11.05
2018-09-29T22:37:08.037Z,10.97
2018-09-29T22:39:43.800Z,10.88
2018-09-29T22:42:19.652Z,10.69
2018-09-29T22:44:57.176Z,10.69
2018-09-29T22:47:33.179Z,10.69
2018-09-29T22:50:09.017Z,10.89
2018-09-29T22:52:44.931Z,10.89
2018-09-29T22:55:20.752Z,10.64
2018-09-29T22:57:56.643Z,10.75
2018-09-29T23:00:33.334Z,10.82
2018-09-29T23:03:09.274Z,10.81
2018-09-29T23:05:45.301Z,10.81
2018-09-29T23:08:21.985Z,10.68
2018-09-29T23:10:57.902Z,10.50
2018-09-29T23:13:33.743Z,10.44
2018-09-29T23:16:10.091Z,10.36
2018-09-29T23:18:45.968Z,10.28
2018-09-29T23:21:21.845Z,10.36
2018-09-29T23:23:57.767Z,10.42
2018-09-29T23:26:33.854Z,10.47
2018-09-29T23:29:09.970Z,10.11
2018-09-29T23:31:45.787Z,9.76
2018-09-29T23:34:21.657Z,9.46
2018-09-29T23:36:57.492Z,9.60
2018-09-29T23:39:33.370Z,9.71
2018-09-29T23:42:09.185Z,9.63
2018-09-29T23:44:45.036Z,9.98
2018-09-29T23:47:20.939Z,10.11
2018-09-29T23:49:56.887Z,10.18
2018-09-29T23:52:32.711Z,10.06
2018-09-29T23:55:08.527Z,10.17
2018-09-29T23:57:44.365Z,10.09
